Time;durP1;ratioP1;P1;durP2;ratioP2;P2;SDS_P1;SDS_P2;PMS_P1;PMS_P2;Temp;Humidity;BMP_temperature;BMP_pressure;BME280_temperature;BME280_humidity;BME280_pressure;Samples;Min_cycle;Max_cycle;Signal;HPM_P1;HPM_P2
2022/09/09 00:00:46;;;;;;;1.35;1.23;;;17.30;80.60;;;;;;5058400;28;20086;-26
2022/09/09 00:03:23;;;;;;;1.95;1.38;;;17.30;80.70;;;;;;5076294;28;20033;-26
2022/09/09 00:06:03;;;;;;;1.33;1.20;;;17.30;80.60;;;;;;5076038;28;20082;-25
2022/09/09 00:08:47;;;;;;;1.60;1.35;;;17.30;80.60;;;;;;5074836;28;20028;-25
2022/09/09 00:11:17;;;;;;;2.20;1.30;;;17.30;80.80;;;;;;5076423;28;20033;-26
2022/09/09 00:13:50;;;;;;;1.65;1.52;;;17.30;80.70;;;;;;5076206;28;20372;-27
2022/09/09 00:16:22;;;;;;;1.48;1.30;;;17.30;80.80;;;;;;5075951;28;20055;-25
2022/09/09 00:18:50;;;;;;;1.80;1.58;;;17.30;80.70;;;;;;5075893;28;20032;-25
2022/09/09 00:21:17;;;;;;;1.65;1.40;;;17.30;81.40;;;;;;5076105;28;20043;-25
2022/09/09 00:23:54;;;;;;;2.75;1.73;;;17.30;80.80;;;;;;5076260;28;20029;-25
2022/09/09 00:26:34;;;;;;;1.70;1.50;;;17.30;80.90;;;;;;5075749;28;20392;-26
2022/09/09 00:29:33;;;;;;;2.40;1.50;;;17.30;80.80;;;;;;5075804;28;20388;-26
2022/09/09 00:32:09;;;;;;;3.92;1.60;;;17.30;80.90;;;;;;5075644;28;20036;-27
2022/09/09 00:34:36;;;;;;;1.50;1.30;;;17.30;80.90;;;;;;5075684;28;20502;-26
2022/09/09 00:37:03;;;;;;;1.77;1.50;;;17.30;81.00;;;;;;5075774;28;20044;-25
2022/09/09 00:39:37;;;;;;;1.88;1.60;;;17.30;81.00;;;;;;5076193;28;20060;-25
2022/09/09 00:42:08;;;;;;;1.98;1.50;;;17.30;81.00;;;;;;5075570;28;20082;-25
2022/09/09 00:44:37;;;;;;;2.67;1.60;;;17.30;81.10;;;;;;5074144;28;20047;-32
2022/09/09 00:47:30;;;;;;;4.22;1.50;;;17.30;81.10;;;;;;5075507;28;20097;-26
2022/09/09 00:50:09;;;;;;;2.72;1.33;;;17.30;81.20;;;;;;5075438;28;20096;-25
2022/09/09 00:52:47;;;;;;;2.13;1.65;;;17.30;81.10;;;;;;5074466;28;20028;-26
2022/09/09 00:55:37;;;;;;;1.77;1.40;;;17.30;81.10;;;;;;5075290;28;20082;-26
2022/09/09 00:58:08;;;;;;;1.45;1.30;;;17.30;81.20;;;;;;5075576;28;20115;-26
2022/09/09 01:00:49;;;;;;;2.30;1.42;;;17.20;81.20;;;;;;5073939;28;20024;-26
2022/09/09 01:03:30;;;;;;;2.50;1.50;;;17.20;81.30;;;;;;5074258;28;20028;-24
2022/09/09 01:06:18;;;;;;;2.53;1.15;;;17.20;81.40;;;;;;5073828;28;20055;-25
2022/09/09 01:08:58;;;;;;;2.00;1.50;;;17.10;81.40;;;;;;5075062;28;20033;-26
2022/09/09 01:11:45;;;;;;;2.92;1.35;;;17.00;81.40;;;;;;5075130;28;20037;-26
2022/09/09 01:14:33;;;;;;;2.10;1.20;;;17.00;81.50;;;;;;5074699;28;20040;-29
2022/09/09 01:17:19;;;;;;;1.63;1.20;;;17.00;81.70;;;;;;5074994;28;20033;-26
2022/09/09 01:19:46;;;;;;;2.58;1.40;;;16.90;81.70;;;;;;5075192;28;20032;-24
2022/09/09 01:22:26;;;;;;;1.70;1.50;;;16.90;81.80;;;;;;5074729;28;20041;-26
2022/09/09 01:25:29;;;;;;;2.45;1.50;;;16.90;81.90;;;;;;5075483;28;20032;-25
2022/09/09 01:28:08;;;;;;;3.45;1.40;;;16.80;82.00;;;;;;5074643;28;20044;-27
2022/09/09 01:30:35;;;;;;;2.17;1.20;;;16.80;82.00;;;;;;5074719;28;20047;-27
2022/09/09 01:33:02;;;;;;;1.25;1.15;;;16.70;81.90;;;;;;5074595;28;20024;-26
2022/09/09 01:35:56;;;;;;;1.75;1.45;;;16.70;82.00;;;;;;5074515;28;20052;-24
2022/09/09 01:38:22;;;;;;;;;;;16.70;82.10;;;;;;5075273;28;20032;-26
2022/09/09 01:40:49;;;;;;;1.63;1.02;;;16.70;81.90;;;;;;5074372;28;19916;-28
2022/09/09 01:43:15;;;;;;;1.45;1.20;;;16.60;81.90;;;;;;5074253;28;20032;-25
2022/09/09 01:45:42;;;;;;;3.20;1.50;;;16.60;82.00;;;;;;5074239;28;20032;-25
2022/09/09 01:48:08;;;;;;;1.77;1.15;;;16.60;82.10;;;;;;5075104;28;20032;-26
2022/09/09 01:50:33;;;;;;;1.38;1.15;;;16.60;82.10;;;;;;5072425;28;20048;-25
2022/09/09 01:53:01;;;;;;;2.17;1.23;;;16.60;82.10;;;;;;5074133;28;20033;-27
2022/09/09 01:55:36;;;;;;;1.52;1.20;;;16.60;82.20;;;;;;5073185;28;20379;-25
2022/09/09 01:58:24;;;;;;;1.70;1.20;;;16.50;82.20;;;;;;5072772;28;20036;-26
2022/09/09 02:01:03;;;;;;;1.65;1.33;;;16.50;82.30;;;;;;5074108;28;20503;-32
2022/09/09 02:03:31;;;;;;;3.85;1.10;;;16.50;82.30;;;;;;5074090;28;20024;-25
2022/09/09 02:06:21;;;;;;;1.25;1.15;;;16.40;82.20;;;;;;5073865;28;20468;-24
2022/09/09 02:08:49;;;;;;;1.30;1.20;;;16.40;82.20;;;;;;5073797;28;20115;-24
2022/09/09 02:11:18;;;;;;;1.58;1.25;;;16.40;82.20;;;;;;5073776;28;20534;-25
2022/09/09 02:13:46;;;;;;;1.30;1.20;;;16.40;82.20;;;;;;5074004;28;20106;-25
2022/09/09 02:16:18;;;;;;;1.38;1.27;;;16.40;82.20;;;;;;5072526;28;20025;-24
2022/09/09 02:18:54;;;;;;;1.27;1.10;;;16.40;82.30;;;;;;5074374;28;20032;-24
2022/09/09 02:21:21;;;;;;;1.35;1.10;;;16.40;82.30;;;;;;5074553;28;20095;-24
2022/09/09 02:23:51;;;;;;;1.05;1.05;;;16.40;82.30;;;;;;5073598;28;20020;-26
2022/09/09 02:26:21;;;;;;;1.58;1.05;;;16.30;82.40;;;;;;5073755;28;20035;-26
2022/09/09 02:28:49;;;;;;;1.20;1.00;;;16.30;82.40;;;;;;5073543;28;20016;-26
2022/09/09 02:31:18;;;;;;;2.08;1.08;;;16.30;82.40;;;;;;5073546;28;20551;-25
2022/09/09 02:33:52;;;;;;;1.30;1.20;;;16.30;82.30;;;;;;5073768;28;20016;-25
2022/09/09 02:36:20;;;;;;;1.35;1.10;;;16.20;82.30;;;;;;5073660;28;20052;-25
2022/09/09 02:38:50;;;;;;;4.05;1.30;;;16.20;82.30;;;;;;5073719;28;20547;-25
2022/09/09 02:41:19;;;;;;;1.30;1.02;;;16.20;82.40;;;;;;5073382;28;20419;-25
2022/09/09 02:43:45;;;;;;;1.50;1.05;;;16.20;82.40;;;;;;5073383;28;20059;-25
2022/09/09 02:46:16;;;;;;;3.10;1.13;;;16.20;82.40;;;;;;5073258;28;20431;-24
2022/09/09 02:48:46;;;;;;;1.33;1.00;;;16.20;82.50;;;;;;5073280;28;20514;-25
2022/09/09 02:51:21;;;;;;;1.52;1.10;;;16.20;82.40;;;;;;5073211;28;20048;-25
2022/09/09 02:53:49;;;;;;;1.70;1.25;;;16.10;82.50;;;;;;5073331;28;20027;-26
2022/09/09 02:56:18;;;;;;;2.20;1.20;;;16.10;83.10;;;;;;5071883;28;20025;-25
2022/09/09 02:58:44;;;;;;;2.80;1.38;;;16.10;82.60;;;;;;5073186;28;20029;-26
2022/09/09 03:01:10;;;;;;;1.77;1.27;;;16.10;82.60;;;;;;5073097;28;20024;-26
2022/09/09 03:03:36;;;;;;;2.95;1.60;;;16.10;82.70;;;;;;5073152;28;20025;-25
2022/09/09 03:06:01;;;;;;;1.40;1.25;;;16.10;82.70;;;;;;5073115;28;20103;-26
2022/09/09 03:08:27;;;;;;;1.67;1.33;;;16.10;82.70;;;;;;5073059;28;20021;-25
2022/09/09 03:10:55;;;;;;;1.60;1.30;;;16.00;82.70;;;;;;5073048;28;20044;-26
2022/09/09 03:13:21;;;;;;;1.85;1.50;;;16.00;82.70;;;;;;5073308;28;20020;-25
2022/09/09 03:15:48;;;;;;;3.90;1.70;;;16.00;82.70;;;;;;5073964;28;20388;-26
2022/09/09 03:18:14;;;;;;;1.80;1.40;;;16.00;82.70;;;;;;5077618;28;20028;-25
2022/09/09 03:20:41;;;;;;;2.05;1.50;;;15.90;82.70;;;;;;5077485;28;20025;-26
2022/09/09 03:23:07;;;;;;;1.42;1.30;;;15.90;82.80;;;;;;5077297;28;20424;-25
2022/09/09 03:25:33;;;;;;;2.72;1.58;;;15.90;82.80;;;;;;5077212;28;20039;-24
2022/09/09 03:27:59;;;;;;;2.10;1.60;;;15.90;83.40;;;;;;5077349;28;20049;-25
2022/09/09 03:30:26;;;;;;;1.77;1.50;;;15.90;82.80;;;;;;5076924;28;20024;-25
2022/09/09 03:32:52;;;;;;;2.78;1.50;;;15.90;82.80;;;;;;5076890;28;20122;-25
2022/09/09 03:35:19;;;;;;;1.90;1.30;;;15.90;82.80;;;;;;5076815;28;20025;-27
2022/09/09 03:37:44;;;;;;;2.60;1.40;;;15.90;82.80;;;;;;5076856;28;20024;-26
2022/09/09 03:40:10;;;;;;;2.50;1.60;;;15.90;82.90;;;;;;5076736;28;20085;-25
2022/09/09 03:42:37;;;;;;;1.95;1.50;;;15.80;82.90;;;;;;5076893;28;20119;-24
2022/09/09 03:45:04;;;;;;;3.38;1.40;;;15.80;82.90;;;;;;5076723;28;20024;-25
2022/09/09 03:47:30;;;;;;;3.47;1.48;;;15.80;82.90;;;;;;5076508;28;20062;-25
2022/09/09 03:49:56;;;;;;;2.00;1.73;;;15.80;83.00;;;;;;5076474;28;20434;-25
2022/09/09 03:52:24;;;;;;;3.53;1.60;;;15.80;83.00;;;;;;5076555;28;20017;-25
2022/09/09 03:54:51;;;;;;;2.60;1.60;;;15.80;83.10;;;;;;5076666;28;20506;-25
2022/09/09 03:57:17;;;;;;;3.22;1.73;;;15.80;83.10;;;;;;5076597;28;20078;-25
2022/09/09 03:59:43;;;;;;;1.67;1.58;;;15.80;83.10;;;;;;5076698;28;20028;-24
2022/09/09 04:02:09;;;;;;;2.17;1.52;;;15.80;83.10;;;;;;5076619;28;20020;-26
2022/09/09 04:04:35;;;;;;;3.08;1.73;;;15.90;83.10;;;;;;5076849;28;20107;-29
2022/09/09 04:07:01;;;;;;;4.38;1.67;;;15.90;83.00;;;;;;5074996;28;20115;-26
2022/09/09 04:09:26;;;;;;;2.13;1.77;;;15.90;83.00;;;;;;5076507;28;20062;-25
2022/09/09 04:11:53;;;;;;;3.30;1.98;;;16.00;82.90;;;;;;5076153;28;20024;-25
2022/09/09 04:14:20;;;;;;;2.45;1.48;;;16.00;82.90;;;;;;5076472;28;20056;-25
2022/09/09 04:16:45;;;;;;;4.82;2.00;;;16.10;82.90;;;;;;5076258;28;20024;-25
2022/09/09 04:19:13;;;;;;;1.60;1.50;;;16.10;82.80;;;;;;5076361;28;20063;-25
2022/09/09 04:21:40;;;;;;;3.38;1.90;;;16.10;82.80;;;;;;5076244;28;20093;-29
2022/09/09 04:24:07;;;;;;;2.88;1.90;;;16.10;82.80;;;;;;5076191;28;20518;-28
2022/09/09 04:26:34;;;;;;;2.40;1.85;;;16.20;82.80;;;;;;5075727;28;20013;-26
2022/09/09 04:28:59;;;;;;;1.65;1.55;;;16.20;82.80;;;;;;5075155;28;20025;-25
2022/09/09 04:31:25;;;;;;;1.90;1.60;;;16.20;82.80;;;;;;5076075;28;20090;-26
2022/09/09 04:33:51;;;;;;;1.90;1.70;;;16.20;82.80;;;;;;5075782;28;20052;-25
2022/09/09 04:36:19;;;;;;;2.45;1.80;;;16.20;82.80;;;;;;5075756;28;20021;-25
2022/09/09 04:38:45;;;;;;;2.90;1.70;;;16.10;82.80;;;;;;5075917;28;20102;-25
2022/09/09 04:41:11;;;;;;;1.80;1.50;;;16.20;82.90;;;;;;5075755;28;20021;-26
2022/09/09 04:43:37;;;;;;;1.85;1.67;;;16.20;83.00;;;;;;5075783;28;20058;-25
2022/09/09 04:46:03;;;;;;;2.10;1.88;;;16.20;83.00;;;;;;5075430;28;20464;-26
2022/09/09 04:48:30;;;;;;;2.90;1.80;;;16.20;83.00;;;;;;5075846;28;20075;-25
2022/09/09 04:51:05;;;;;;;2.45;1.80;;;16.20;83.00;;;;;;5075623;28;20055;-25
2022/09/09 04:53:31;;;;;;;3.47;1.80;;;16.30;83.00;;;;;;5075522;28;20020;-25
2022/09/09 04:56:14;;;;;;;2.85;1.90;;;16.30;83.00;;;;;;5075281;28;20426;-25
2022/09/09 04:58:43;;;;;;;2.92;1.80;;;16.30;83.00;;;;;;5075310;28;20025;-25
2022/09/09 05:01:18;;;;;;;3.13;1.60;;;16.30;82.90;;;;;;5075458;28;20104;-25
2022/09/09 05:03:47;;;;;;;2.72;1.90;;;16.30;82.90;;;;;;5075596;28;20029;-24
2022/09/09 05:06:16;;;;;;;5.18;1.65;;;16.30;82.90;;;;;;5075512;28;20044;-26
2022/09/09 05:08:43;;;;;;;4.53;1.60;;;16.30;83.00;;;;;;5075081;28;20062;-25
2022/09/09 05:11:25;;;;;;;4.68;1.85;;;16.30;83.00;;;;;;5075329;28;20019;-26
2022/09/09 05:13:52;;;;;;;2.58;1.88;;;16.30;83.00;;;;;;5073652;28;20012;-25
2022/09/09 05:16:18;;;;;;;4.22;1.67;;;16.40;82.90;;;;;;5074924;28;20043;-25
2022/09/09 05:18:45;;;;;;;4.47;1.60;;;16.40;82.90;;;;;;5074764;28;20048;-25
2022/09/09 05:21:12;;;;;;;2.05;1.60;;;16.40;82.80;;;;;;5073587;28;20380;-25
2022/09/09 05:23:39;;;;;;;2.33;1.52;;;16.50;82.90;;;;;;5074996;28;20024;-25
2022/09/09 05:26:05;;;;;;;5.13;1.70;;;16.50;82.90;;;;;;5074945;28;20020;-25
2022/09/09 05:28:33;;;;;;;3.03;1.58;;;16.50;82.90;;;;;;5074630;28;20380;-26
2022/09/09 05:31:08;;;;;;;1.95;1.27;;;16.50;82.90;;;;;;5074772;28;20013;-26
2022/09/09 05:33:35;;;;;;;4.05;1.88;;;16.50;83.00;;;;;;5074546;28;20032;-27
2022/09/09 05:36:07;;;;;;;2.35;1.30;;;16.50;82.90;;;;;;5074450;28;20384;-25
2022/09/09 05:38:34;;;;;;;1.70;1.48;;;16.60;83.00;;;;;;5074298;28;20042;-25
2022/09/09 05:41:00;;;;;;;2.90;1.60;;;16.60;82.90;;;;;;5074500;28;20037;-26
2022/09/09 05:43:27;;;;;;;2.65;1.30;;;16.60;83.00;;;;;;5074741;28;20020;-25
2022/09/09 05:46:04;;;;;;;4.90;1.33;;;16.60;82.90;;;;;;5074164;28;20078;-26
2022/09/09 05:48:30;;;;;;;4.13;1.60;;;16.60;83.00;;;;;;5074430;28;20028;-26
2022/09/09 05:50:56;;;;;;;5.57;1.70;;;16.60;83.00;;;;;;5074627;28;20045;-25
2022/09/09 05:53:22;;;;;;;4.63;1.60;;;16.60;83.00;;;;;;5074310;28;20091;-26
2022/09/09 05:55:48;;;;;;;3.60;1.77;;;16.60;83.00;;;;;;5074131;28;20032;-26
2022/09/09 05:58:16;;;;;;;2.70;1.50;;;16.60;83.00;;;;;;5073941;28;20484;-29
2022/09/09 06:00:43;;;;;;;2.30;1.42;;;16.60;83.10;;;;;;5073932;28;20028;-26
2022/09/09 06:03:11;;;;;;;5.78;1.70;;;16.60;83.10;;;;;;5072674;28;20024;-25
2022/09/09 06:05:37;;;;;;;1.70;1.42;;;16.60;83.20;;;;;;5073748;28;20387;-26
2022/09/09 06:08:03;;;;;;;3.42;1.80;;;16.60;83.20;;;;;;5074084;28;20087;-25
2022/09/09 06:10:28;;;;;;;4.75;1.63;;;16.60;83.30;;;;;;5072861;28;20028;-25
2022/09/09 06:12:54;;;;;;;4.57;1.70;;;16.60;83.30;;;;;;5072569;28;20036;-27
2022/09/09 06:15:20;;;;;;;5.68;1.75;;;16.60;83.30;;;;;;5073702;28;20376;-27
2022/09/09 06:17:46;;;;;;;4.00;1.40;;;16.70;83.30;;;;;;5073980;28;20020;-25
2022/09/09 06:20:12;;;;;;;5.03;1.67;;;16.70;84.00;;;;;;5073630;28;20415;-25
2022/09/09 06:22:40;;;;;;;4.32;1.80;;;16.70;83.20;;;;;;5072326;28;20020;-26
2022/09/09 06:25:07;;;;;;;4.28;1.45;;;16.80;83.30;;;;;;5072232;28;20028;-25
2022/09/09 06:27:33;;;;;;;4.03;1.60;;;16.80;83.30;;;;;;5073317;28;20028;-28
2022/09/09 06:29:58;;;;;;;4.07;1.85;;;16.80;83.20;;;;;;5073300;28;20017;-28
2022/09/09 06:32:24;;;;;;;3.90;1.70;;;16.90;83.30;;;;;;5073408;28;20024;-25
2022/09/09 06:34:50;;;;;;;3.45;1.50;;;16.90;83.20;;;;;;5073540;28;20127;-25
2022/09/09 06:37:15;;;;;;;3.53;1.40;;;16.90;83.10;;;;;;5073195;28;20081;-25
2022/09/09 06:39:41;;;;;;;5.28;1.50;;;17.00;83.10;;;;;;5073859;28;20024;-25
2022/09/09 06:42:08;;;;;;;4.38;1.52;;;17.00;83.00;;;;;;5073297;28;20055;-26
2022/09/09 06:44:34;;;;;;;3.50;1.70;;;17.00;82.90;;;;;;5073347;28;20024;-27
2022/09/09 06:46:59;;;;;;;2.35;1.33;;;17.10;82.90;;;;;;5073684;28;20525;-26
2022/09/09 06:49:25;;;;;;;3.92;1.83;;;17.10;82.90;;;;;;5073302;28;20110;-29
2022/09/09 06:51:51;;;;;;;3.72;1.40;;;17.10;82.90;;;;;;5072829;28;20074;-24
2022/09/09 06:54:18;;;;;;;3.10;1.67;;;17.10;82.80;;;;;;5073032;28;20112;-25
2022/09/09 06:56:45;;;;;;;4.32;2.00;;;17.20;82.70;;;;;;5074241;28;20024;-26
2022/09/09 06:59:11;;;;;;;3.53;1.45;;;17.20;82.70;;;;;;5073161;28;20031;-25
2022/09/09 07:01:43;;;;;;;4.30;1.55;;;17.30;82.70;;;;;;5073431;28;20066;-26
2022/09/09 07:04:10;;;;;;;4.03;1.27;;;17.30;82.60;;;;;;5071959;28;20024;-25
2022/09/09 07:06:46;;;;;;;2.72;1.40;;;17.40;82.40;;;;;;5072931;28;20357;-25
2022/09/09 07:09:14;;;;;;;4.28;1.45;;;17.40;82.30;;;;;;5073301;28;20354;-26
2022/09/09 07:11:41;;;;;;;4.10;1.65;;;17.50;82.30;;;;;;5072813;28;20028;-33
2022/09/09 07:14:08;;;;;;;4.38;1.40;;;17.60;82.20;;;;;;5072874;28;20021;-26
2022/09/09 07:16:36;;;;;;;3.83;1.30;;;17.70;82.10;;;;;;5072748;28;20017;-25
2022/09/09 07:19:02;;;;;;;3.47;1.60;;;17.80;81.80;;;;;;5072563;28;20024;-25
2022/09/09 07:21:30;;;;;;;3.58;1.52;;;17.90;81.60;;;;;;5072613;28;20028;-25
2022/09/09 07:23:56;;;;;;;3.25;1.30;;;17.90;81.40;;;;;;5071362;28;20556;-25
2022/09/09 07:26:25;;;;;;;5.57;1.40;;;17.90;80.80;;;;;;5071580;28;20465;-24
2022/09/09 07:28:51;;;;;;;4.68;1.42;;;18.00;80.80;;;;;;5072596;28;20021;-25
2022/09/09 07:31:20;;;;;;;3.35;1.20;;;18.00;80.70;;;;;;5072423;28;20032;-30
2022/09/09 07:33:46;;;;;;;3.38;1.55;;;18.00;80.80;;;;;;5072811;28;20017;-25
2022/09/09 07:36:21;;;;;;;5.47;1.17;;;18.10;80.60;;;;;;5071688;28;20107;-25
2022/09/09 07:39:08;;;;;;;3.08;1.00;;;18.10;80.10;;;;;;5072441;28;20031;-26
2022/09/09 07:41:36;;;;;;;3.00;0.90;;;18.20;79.50;;;;;;5072480;28;20064;-24
2022/09/09 07:44:07;;;;;;;4.57;1.45;;;18.30;79.50;;;;;;5072794;28;20024;-26
2022/09/09 07:46:33;;;;;;;5.78;1.90;;;18.30;79.20;;;;;;5072334;28;20025;-26
2022/09/09 07:49:00;;;;;;;4.13;1.30;;;18.30;79.40;;;;;;5072279;28;20020;-28
2022/09/09 07:51:29;;;;;;;4.60;1.60;;;18.40;80.10;;;;;;5073036;28;20029;-26
2022/09/09 07:54:01;;;;;;;3.50;1.40;;;18.50;79.20;;;;;;5071332;28;20035;-28
2022/09/09 07:56:28;;;;;;;6.30;1.48;;;18.50;78.90;;;;;;5072812;28;20026;-26
2022/09/09 07:58:55;;;;;;;5.10;1.65;;;18.50;78.90;;;;;;5072648;28;20489;-25
2022/09/09 08:01:22;;;;;;;3.60;1.33;;;18.50;79.00;;;;;;5072666;28;20056;-25
2022/09/09 08:03:55;;;;;;;2.55;1.20;;;18.50;79.00;;;;;;5076170;28;20028;-26
2022/09/09 08:06:22;;;;;;;5.45;1.25;;;18.60;79.00;;;;;;5076206;28;20021;-26
2022/09/09 08:08:50;;;;;;;5.75;2.25;;;18.60;78.90;;;;;;5076329;28;20376;-26
2022/09/09 08:11:17;;;;;;;4.53;1.48;;;18.60;78.70;;;;;;5075980;28;20020;-26
2022/09/09 08:13:43;;;;;;;5.25;1.50;;;18.70;78.60;;;;;;5075969;28;20404;-25
2022/09/09 08:16:15;;;;;;;3.75;1.73;;;18.70;78.40;;;;;;5076013;28;20021;-25
2022/09/09 08:18:41;;;;;;;3.85;1.20;;;18.70;78.20;;;;;;5075781;28;20123;-24
2022/09/09 08:21:14;;;;;;;5.22;1.20;;;18.70;78.30;;;;;;5075876;28;20052;-28
2022/09/09 08:23:41;;;;;;;2.42;1.10;;;18.70;78.40;;;;;;5075581;28;20108;-25
2022/09/09 08:26:10;;;;;;;2.83;1.00;;;18.70;78.30;;;;;;5076164;28;20025;-26
2022/09/09 08:28:36;;;;;;;3.40;1.33;;;18.60;78.10;;;;;;5075512;28;20020;-24
2022/09/09 08:31:11;;;;;;;2.47;1.30;;;18.70;78.20;;;;;;5076157;28;20416;-25
2022/09/09 08:33:38;;;;;;;2.65;1.27;;;18.70;78.00;;;;;;5075439;28;20035;-28
2022/09/09 08:36:06;;;;;;;4.32;1.55;;;18.70;77.80;;;;;;5074198;28;20023;-24
2022/09/09 08:38:33;;;;;;;3.17;1.40;;;18.70;77.60;;;;;;5076266;28;20503;-25
2022/09/09 08:41:16;;;;;;;3.00;1.27;;;18.70;77.60;;;;;;5075313;28;20017;-28
2022/09/09 08:43:45;;;;;;;2.58;1.13;;;18.70;77.60;;;;;;5075500;28;20476;-29
2022/09/09 08:46:27;;;;;;;2.45;1.25;;;18.70;77.20;;;;;;5074994;28;20472;-28
2022/09/09 08:49:04;;;;;;;3.65;1.52;;;18.70;77.20;;;;;;5074978;28;20107;-24
2022/09/09 08:51:33;;;;;;;3.53;1.20;;;18.70;77.30;;;;;;5075163;28;20027;-25
2022/09/09 08:54:01;;;;;;;4.60;1.40;;;18.60;77.30;;;;;;5075292;28;20032;-26
2022/09/09 08:56:30;;;;;;;4.75;1.40;;;18.70;77.40;;;;;;5075256;28;20065;-41
2022/09/09 08:58:59;;;;;;;4.28;1.27;;;18.70;77.30;;;;;;5073547;28;20035;-42
2022/09/09 09:01:27;;;;;;;3.08;1.15;;;18.70;77.20;;;;;;5075092;28;20081;-40
2022/09/09 09:04:11;;;;;;;3.05;1.40;;;18.70;77.10;;;;;;5073980;28;20135;-44
2022/09/09 09:06:46;;;;;;;;;;;18.80;77.10;;;;;;5075043;28;20115;-42
2022/09/09 09:09:26;;;;;;;2.15;1.15;;;18.80;77.00;;;;;;5073231;28;19959;-43
2022/09/09 09:11:54;;;;;;;5.60;1.40;;;18.80;76.70;;;;;;5074843;28;20069;-41
2022/09/09 09:14:33;;;;;;;3.55;1.20;;;18.80;76.50;;;;;;5073931;28;20028;-42
2022/09/09 09:17:23;;;;;;;3.47;1.00;;;18.80;76.30;;;;;;5074698;28;20077;-43
2022/09/09 09:19:49;;;;;;;4.00;1.05;;;19.00;76.20;;;;;;5074783;28;20063;-39
2022/09/09 09:22:33;;;;;;;2.63;1.10;;;19.10;76.00;;;;;;5074242;28;20024;-39
2022/09/09 09:25:06;;;;;;;2.53;0.93;;;19.10;75.50;;;;;;5074433;28;20031;-42
2022/09/09 09:27:52;;;;;;;5.32;1.58;;;19.20;75.50;;;;;;5074242;28;20043;-42
2022/09/09 09:30:20;;;;;;;3.55;0.95;;;19.20;75.50;;;;;;5074340;28;20329;-42
2022/09/09 09:33:15;;;;;;;3.05;1.20;;;19.10;75.30;;;;;;5074173;28;20392;-40
2022/09/09 09:35:41;;;;;;;3.28;1.10;;;19.10;75.30;;;;;;5073710;28;20028;-44
2022/09/09 09:38:24;;;;;;;5.20;1.02;;;19.10;75.20;;;;;;5073962;28;20535;-44
2022/09/09 09:40:51;;;;;;;;;;;19.10;75.20;;;;;;5074609;28;20478;-43
2022/09/09 09:43:24;;;;;;;3.90;1.80;;;19.10;75.20;;;;;;5074196;28;19911;-43
2022/09/09 09:45:50;;;;;;;4.88;1.20;;;19.00;75.20;;;;;;5074056;28;20021;-43
2022/09/09 09:48:15;;;;;;;3.58;1.05;;;19.10;75.10;;;;;;5074566;28;20029;-25
2022/09/09 09:50:54;;;;;;;2.53;1.17;;;19.10;74.90;;;;;;5073733;28;20477;-40
2022/09/09 09:53:33;;;;;;;5.00;1.10;;;19.20;74.80;;;;;;5074074;28;20023;-39
2022/09/09 09:56:08;;;;;;;4.63;1.48;;;19.30;74.60;;;;;;5073873;28;20048;-39
2022/09/09 09:58:51;;;;;;;2.70;0.90;;;19.40;74.30;;;;;;5074066;28;20536;-44
2022/09/09 10:01:26;;;;;;;5.05;1.23;;;19.60;73.90;;;;;;5073388;28;20021;-44
2022/09/09 10:04:00;;;;;;;3.47;0.95;;;19.70;73.70;;;;;;5073488;28;20035;-44
2022/09/09 10:06:37;;;;;;;;;;;19.80;73.40;;;;;;5073831;28;20024;-43
2022/09/09 10:09:20;;;;;;;5.95;1.30;;;19.90;72.70;;;;;;5073767;28;20308;-43
2022/09/09 10:12:13;;;;;;;5.43;1.30;;;19.70;72.20;;;;;;5073535;28;20115;-44
2022/09/09 10:15:08;;;;;;;6.15;1.63;;;19.60;72.30;;;;;;5073327;28;20067;-44
2022/09/09 10:18:22;;;;;;;4.40;1.33;;;19.60;72.50;;;;;;5072493;28;20036;-42
2022/09/09 10:21:04;;;;;;;4.40;1.60;;;19.40;73.40;;;;;;5071189;28;20025;-46
2022/09/09 10:24:17;;;;;;;3.30;1.30;;;19.30;73.10;;;;;;5073225;28;20044;-42
2022/09/09 10:26:55;;;;;;;3.13;1.15;;;19.30;73.30;;;;;;5073442;28;20545;-44
2022/09/09 10:29:43;;;;;;;4.95;1.20;;;19.30;73.50;;;;;;5074170;28;20444;-42
2022/09/09 10:32:15;;;;;;;4.55;1.73;;;19.30;73.60;;;;;;5073242;28;20082;-41
2022/09/09 10:35:04;;;;;;;3.42;1.25;;;19.20;73.60;;;;;;5071891;28;20024;-41
2022/09/09 10:38:02;;;;;;;2.92;1.05;;;19.30;73.60;;;;;;5073117;28;20039;-38
2022/09/09 10:40:58;;;;;;;3.90;1.15;;;19.30;73.40;;;;;;5073042;28;20101;-43
2022/09/09 10:43:51;;;;;;;3.90;1.00;;;19.40;73.30;;;;;;5073659;28;20021;-44
2022/09/09 10:46:49;;;;;;;4.18;1.15;;;19.50;73.10;;;;;;5071884;28;20547;-42
2022/09/09 10:49:29;;;;;;;2.85;1.30;;;19.50;73.00;;;;;;5072916;28;20067;-41
2022/09/09 10:52:06;;;;;;;5.50;1.30;;;19.40;72.90;;;;;;5073046;28;20021;-41
2022/09/09 10:54:31;;;;;;;2.50;1.17;;;19.30;73.10;;;;;;5072836;28;20032;-30
2022/09/09 10:57:22;;;;;;;4.80;1.20;;;19.30;73.50;;;;;;5073352;28;20029;-28
2022/09/09 10:59:53;;;;;;;3.17;1.17;;;19.20;73.70;;;;;;5072829;28;20036;-32
2022/09/09 11:02:27;;;;;;;3.30;1.20;;;19.20;73.80;;;;;;5072826;28;20034;-27
2022/09/09 11:05:05;;;;;;;5.40;1.30;;;19.30;73.60;;;;;;5073492;28;20032;-28
2022/09/09 11:07:42;;;;;;;4.53;1.20;;;19.30;73.50;;;;;;5071357;28;20058;-27
2022/09/09 11:10:25;;;;;;;4.00;1.00;;;19.30;73.30;;;;;;5072938;28;20078;-27
2022/09/09 11:12:54;;;;;;;3.05;1.25;;;19.40;73.40;;;;;;5072962;28;20017;-29
2022/09/09 11:15:29;;;;;;;3.60;1.15;;;19.40;73.50;;;;;;5072875;28;20130;-28
2022/09/09 11:18:01;;;;;;;4.03;1.27;;;19.40;73.40;;;;;;5072662;28;20078;-27
2022/09/09 11:20:28;;;;;;;5.60;1.30;;;19.40;73.20;;;;;;5071303;28;20025;-28
2022/09/09 11:23:02;;;;;;;3.83;1.15;;;19.40;73.30;;;;;;5072654;28;20020;-27
2022/09/09 11:25:41;;;;;;;3.35;1.30;;;19.40;73.60;;;;;;5071185;28;20024;-28
2022/09/09 11:28:44;;;;;;;5.60;1.17;;;19.30;74.10;;;;;;5072618;28;20392;-30
2022/09/09 11:31:36;;;;;;;4.57;1.20;;;19.40;74.50;;;;;;5071291;28;20058;-28
2022/09/09 11:34:28;;;;;;;3.45;1.17;;;19.50;74.50;;;;;;5072632;28;20092;-32
2022/09/09 11:37:21;;;;;;;2.53;1.10;;;19.60;74.40;;;;;;5073553;28;20024;-31
2022/09/09 11:40:28;;;;;;;3.93;1.23;;;19.70;75.00;;;;;;5076727;28;20032;-29
2022/09/09 11:43:12;;;;;;;3.35;1.13;;;19.60;74.20;;;;;;5076136;28;20044;-28
2022/09/09 11:45:40;;;;;;;3.05;1.00;;;19.60;74.40;;;;;;5074781;28;20042;-32
2022/09/09 11:48:21;;;;;;;3.30;1.30;;;19.60;74.20;;;;;;5076936;28;20023;-28
2022/09/09 11:50:58;;;;;;;3.67;1.30;;;19.60;74.30;;;;;;5076296;28;20055;-32
2022/09/09 11:53:24;;;;;;;2.58;1.00;;;19.70;74.40;;;;;;5074888;28;20021;-30
2022/09/09 11:56:09;;;;;;;3.15;0.90;;;19.80;74.30;;;;;;5075226;28;20017;-27
2022/09/09 11:58:43;;;;;;;2.97;0.93;;;19.80;74.40;;;;;;5076451;28;20095;-26
2022/09/09 12:01:34;;;;;;;3.42;1.35;;;19.90;75.00;;;;;;5076667;28;20052;-28
2022/09/09 12:04:39;;;;;;;1.88;0.98;;;19.80;74.60;;;;;;5076009;28;20021;-30
2022/09/09 12:07:11;;;;;;;2.15;1.00;;;19.80;74.60;;;;;;5076675;28;20097;-28
2022/09/09 12:09:56;;;;;;;3.80;1.05;;;19.80;75.10;;;;;;5075939;28;20067;-27
2022/09/09 12:12:33;;;;;;;1.90;0.90;;;19.90;75.20;;;;;;5076179;28;20032;-28
2022/09/09 12:15:03;;;;;;;2.35;1.35;;;19.90;75.00;;;;;;5076122;28;20020;-28
2022/09/09 12:17:30;;;;;;;3.58;0.75;;;20.00;75.10;;;;;;5076100;28;20020;-27
2022/09/09 12:20:14;;;;;;;2.03;0.90;;;20.20;74.90;;;;;;5075999;28;20033;-27
2022/09/09 12:22:45;;;;;;;2.22;1.15;;;20.20;74.40;;;;;;5076294;28;20108;-26
2022/09/09 12:25:35;;;;;;;1.95;0.90;;;20.10;74.40;;;;;;5076038;28;20108;-28
2022/09/09 12:28:12;;;;;;;2.67;1.02;;;20.00;74.50;;;;;;5075668;28;20412;-28
2022/09/09 12:30:48;;;;;;;2.55;1.08;;;19.90;74.50;;;;;;5075589;28;20468;-29
2022/09/09 12:33:19;;;;;;;2.58;1.00;;;19.70;74.80;;;;;;5075938;28;20028;-28
2022/09/09 12:35:49;;;;;;;3.30;1.23;;;19.60;75.00;;;;;;5075823;28;20104;-27
2022/09/09 12:38:29;;;;;;;2.97;1.08;;;19.60;75.10;;;;;;5075488;28;20077;-28
2022/09/09 12:40:57;;;;;;;1.77;1.10;;;19.70;75.20;;;;;;5075657;28;20036;-28
2022/09/09 12:43:25;;;;;;;3.03;1.13;;;19.80;75.10;;;;;;5075986;28;20024;-32
2022/09/09 12:45:57;;;;;;;1.27;0.90;;;20.00;74.70;;;;;;5075147;28;20070;-30
2022/09/09 12:48:32;;;;;;;1.83;1.00;;;20.10;74.50;;;;;;5074416;28;20025;-28
2022/09/09 12:50:59;;;;;;;3.28;1.10;;;20.20;74.30;;;;;;5073961;28;20647;-27
2022/09/09 12:53:34;;;;;;;2.92;1.10;;;20.20;74.10;;;;;;5076004;28;20020;-27
2022/09/09 12:56:03;;;;;;;3.47;1.00;;;20.20;74.00;;;;;;5075187;28;20388;-29
2022/09/09 12:58:34;;;;;;;2.63;1.08;;;20.20;74.00;;;;;;5074908;28;20047;-29
2022/09/09 13:01:04;;;;;;;2.90;1.13;;;20.20;74.00;;;;;;5074903;28;20024;-28
2022/09/09 13:03:30;;;;;;;3.40;1.02;;;20.10;74.00;;;;;;5075022;28;20119;-29
2022/09/09 13:06:09;;;;;;;4.05;1.38;;;20.00;74.10;;;;;;5075224;28;20483;-28
2022/09/09 13:08:35;;;;;;;1.98;1.00;;;19.90;74.20;;;;;;5074853;28;20407;-29
2022/09/09 13:11:06;;;;;;;3.88;1.15;;;19.90;74.20;;;;;;5075186;28;20096;-28
2022/09/09 13:13:43;;;;;;;2.70;1.10;;;19.80;74.40;;;;;;5074812;28;20198;-28
2022/09/09 13:16:33;;;;;;;2.83;1.20;;;19.80;75.10;;;;;;5074865;28;20039;-30